Saint Joseph, MO

4:57 AM CST on December 06, 2019 (GMT -0600)
Brookdale | | Change Station
Active Advisory: Flood Warning

Elev 965 ft 39.77 °N, 94.82 °W | Updated 5 seconds ago

Overcast
Overcast
33.4 °F
Feels Like 28 °F
N
5.8
Wind Variable Wind from NNW
Gusts 3.8 mph

Today
High -- | Low -- °F
--% Chance of Precip.
Yesterday
High -- | Low -- °F
Precip. -- in
Pressure 30.28 in
Visibility 10.0 miles
Clouds Overcast 1700 ft
Windchill 28 °F
Dew Point 28 °F
Humidity 80%
Rainfall 0.00 in
Snow Depth Not available.
7:25 AM 4:54 PM
Waxing Gibbous, 70% visible
METAR KSTJ 061053Z AUTO 36018G26KT 10SM OVC017 01/M03 A3026 RMK AO2 PK WND 36028/1035 SLP254 T00061028
Pressure 30.28 in
Visibility 10.0 miles
Clouds Overcast 1700 ft
Windchill 28 °F
Dew Point 28 °F
Humidity 80%
Rainfall 0.00 in
Snow Depth Not available.
7:25 AM 4:54 PM
Waxing Gibbous, 70% visible
METAR KSTJ 061053Z AUTO 36018G26KT 10SM OVC017 01/M03 A3026 RMK AO2 PK WND 36028/1035 SLP254 T00061028

Get Your Daily Forecast Email!

Thanks for signing up!

Be on the lookout for a verification email in your inbox.

You'll start receiving severe weather alerts in your inbox..

×

10-Day Weather Forecast

Almanac

Astronomy

Dec. 06, 2019 Rise Set
Actual Time
Civil Twilight
Nautical Twilight
Astronomical Twilight
Moon
Length of Visible Light
Length of Day
Tomorrow will be .
, % of the Moon is Illuminated

Today's Extremes

State Highs State Lows

Community

WunderPhotos

Category 6

Welcome to Category 6. This is the collective home for Weather Underground's featured writeups by Dr. Jeff Masters (right), Bob Henson (left), Chris Burt, and other regular contributors.

Nearby

Air Quality

  Air Quality AQ Index Pollutant
Not available.

Snow Depth

Station Depth Elevation

Earthquake Activity

City Distance Mag. Time & Date
Minimum magnitude displayed is 2.5.

Coastal Water Temperatures

Place Temperature

Stations

Nearby Weather Stations

Station Location Temp. Windchill Dew Point Humidity Wind Precip. Elev Updated Type
                   

Watches & Warnings

Flood Warning
Issued: 7:12 PM CST Dec. 5, 2019 – National Weather Service

The Flood Warning continues for
the Missouri River at St Joseph.
* Until Sunday afternoon.
* At 6:30 PM Thursday the stage was 17.2 feet.
* Flood stage is 17.0 feet.
* Minor flooding is occurring and minor flooding is forecast.
* Forecast... the river will continue to fall to below flood stage by
early Saturday afternoon.
* At 17.0 feet... lowland flooding upstream and downstream from St.
Joseph occurs.

                       Latest
location fs stage day/time forecast

Missouri River
St Joseph 17 17.2 Thu 06 PM 17.2 early Friday morning


lat... Lon 3991 9501 3990 9489 3975 9483 3964 9488 3970 9505